Accueil
METAR-TAF:

METAR-TAF

Aéroports :

Aéroport international Diori Hamani

Niamey, Niger

latitude: 13-29N, longitude: 002-10E, altitude: 223 m

Observation

Le bulletin a été fait il y a 18 minutes, à 11:00 UTC
Vent 13 kt de nord-ouest
Température 33°C
Humidité 53%
Pression 1013 hPa
Visibilité 10 km ou plus
Quelques nuages à une hauteur de 2000 ft

METAR: DRRN 201100Z 31013KT 9999 FEW020 33/22 Q1013 NOSIG

Heure: 12:18 (11:18 UTC)

Prévision

Le bulletin a été fait il y a 6 heures et 18 minutes, à 05:00 UTC
Prévision valable du 20 à 06 UTC au 21 à 12 UTC
Vent 10 kt de ouest/sud-ouest
Visibilité 10 km ou plus
Quelques nuages à une hauteur de 3000 ft
Probabilité 30% :
Temporairement
du 20 à 14 UTC au 20 à 19 UTC
Nuages fragmentés à une hauteur de 1600 ft
Quelques nuages à une hauteur de 3000 ft, Cumulonimbus.
orage

TAF: DRRN 200500Z 2006/2112 24010KT 9999 FEW030 PROB30 TEMPO 2014/2019 TS BKN016 FEW030CB

Observations et prévisions météorologiques de plus de 4000 aéroports (messages METAR et TAF).

Les stations disponibles sont représentées par des disques jaunes et rouges sur la carte.

Passer la souris dessus pour voir le nom de la station.

Cliquer dessus pour voir les observations et prévisions météorologiques.

Pour changer de carte: cliquez sur les boutons verts avec une croix noire pour zoomer, sur le bouton vert avec un tiret pour effectuer un zoom arrière, ou sur les flèches vertes pour les cartes adjacentes.


METAR-TAF: